Time;durP1;ratioP1;P1;durP2;ratioP2;P2;SDS_P1;SDS_P2;PMS_P1;PMS_P2;Temp;Humidity;BMP_temperature;BMP_pressure;BME280_temperature;BME280_humidity;BME280_pressure;Samples;Min_cycle;Max_cycle;Signal;HPM_P1;HPM_P2
2022/11/15 00:01:52;;;;;;;65.97;39.95;;;;;;;4.45;100.00;153655.06;5020158;28;20143;-74
2022/11/15 00:04:37;;;;;;;65.50;39.13;;;;;;;4.52;100.00;153671.69;5009155;28;20045;-74
2022/11/15 00:07:21;;;;;;;61.33;40.95;;;;;;;4.53;100.00;153672.94;5007068;28;20085;-75
2022/11/15 00:10:06;;;;;;;62.33;38.42;;;;;;;4.56;100.00;153680.59;5007121;28;20030;-75
2022/11/15 00:12:50;;;;;;;65.72;40.92;;;;;;;4.52;100.00;153670.38;4991014;28;20026;-74
2022/11/15 00:15:39;;;;;;;60.50;39.92;;;;;;;4.61;100.00;153693.38;4998955;28;20038;-75
2022/11/15 00:18:23;;;;;;;63.22;39.70;;;;;;;4.54;100.00;153676.78;5008027;28;20290;-75
2022/11/15 00:21:10;;;;;;;65.32;40.47;;;;;;;4.57;100.00;153684.44;5007907;28;20180;-74
2022/11/15 00:23:55;;;;;;;68.88;40.75;;;;;;;4.52;100.00;153671.69;4987576;28;20035;-74
2022/11/15 00:26:39;;;;;;;63.78;39.38;;;;;;;4.54;100.00;153676.78;5025885;28;20026;-75
2022/11/15 00:29:23;;;;;;;63.92;39.38;;;;;;;4.39;100.00;153639.72;5008028;28;20065;-75
2022/11/15 00:32:07;;;;;;;65.70;38.83;;;;;;;4.31;100.00;153618.00;5006865;28;20033;-76
2022/11/15 00:34:52;;;;;;;65.40;41.67;;;;;;;4.39;100.00;153639.72;5008627;28;20045;-75
2022/11/15 00:37:36;;;;;;;64.07;39.40;;;;;;;4.39;100.00;153639.72;5008942;28;20065;-74
2022/11/15 00:40:20;;;;;;;65.30;40.95;;;;;;;4.38;100.00;153637.16;5000472;28;20042;-75
2022/11/15 00:43:04;;;;;;;64.55;40.60;;;;;;;4.44;100.00;153652.47;5009509;28;20040;-76
2022/11/15 00:45:49;;;;;;;64.22;39.53;;;;;;;4.43;100.00;153648.69;5008435;28;20033;-76
2022/11/15 00:48:33;;;;;;;62.15;38.05;;;;;;;4.50;100.00;153666.53;5010749;28;20128;-75
2022/11/15 00:51:17;;;;;;;62.50;39.58;;;;;;;4.41;100.00;153643.56;4993045;28;20061;-74
2022/11/15 00:54:01;;;;;;;60.45;37.47;;;;;;;4.48;100.00;153662.75;5009171;28;20430;-74
2022/11/15 00:56:45;;;;;;;58.97;37.40;;;;;;;4.50;100.00;153666.53;5009512;28;20053;-74
2022/11/15 00:59:29;;;;;;;59.15;36.50;;;;;;;4.60;100.00;153690.84;5000663;28;20030;-76
2022/11/15 01:02:13;;;;;;;59.08;37.15;;;;;;;4.63;100.00;153698.47;5008036;28;20044;-74
2022/11/15 01:04:58;;;;;;;53.97;36.75;;;;;;;4.58;100.00;153687.00;4999089;28;20092;-75
2022/11/15 01:07:42;;;;;;;57.53;37.30;;;;;;;4.60;100.00;153692.13;5004771;28;20030;-75
2022/11/15 01:10:26;;;;;;;62.17;37.70;;;;;;;4.42;100.00;153646.09;4988715;28;20093;-76
2022/11/15 01:13:10;;;;;;;61.92;37.58;;;;;;;4.34;100.00;153626.94;4992169;28;20413;-75
2022/11/15 01:15:54;;;;;;;61.88;39.38;;;;;;;4.25;100.00;153605.22;4995933;28;20083;-75
2022/11/15 01:18:39;;;;;;;58.90;38.00;;;;;;;4.17;100.00;153583.53;5006603;28;20560;-76
2022/11/15 01:21:23;;;;;;;65.32;39.13;;;;;;;4.08;100.00;153563.06;5007692;28;20510;-76
2022/11/15 01:24:11;;;;;;;62.10;37.78;;;;;;;4.05;100.00;153554.09;5007558;28;20125;-75
2022/11/15 01:26:55;;;;;;;63.20;39.63;;;;;;;3.96;100.00;153531.16;5000105;28;20395;-75
2022/11/15 01:29:40;;;;;;;59.83;38.10;;;;;;;3.88;100.00;153513.28;5018060;28;20046;-75
2022/11/15 01:32:23;;;;;;;64.93;39.33;;;;;;;3.86;100.00;153506.84;5006479;28;20041;-75
2022/11/15 01:35:08;;;;;;;64.25;38.90;;;;;;;3.72;100.00;153472.38;5007401;28;20034;-75
2022/11/15 01:37:54;;;;;;;61.35;37.22;;;;;;;3.65;100.00;153454.50;4993360;28;20140;-76
2022/11/15 01:40:38;;;;;;;67.93;38.40;;;;;;;3.63;100.00;153450.66;5005123;28;20029;-75
2022/11/15 01:43:29;;;;;;;65.30;40.53;;;;;;;3.64;100.00;153451.97;4993078;28;20155;-75
2022/11/15 01:46:22;;;;;;;68.22;41.15;;;;;;;3.72;100.00;153472.38;5007576;28;20045;-76
2022/11/15 01:49:19;;;;;;;62.40;38.90;;;;;;;3.60;100.00;153443.03;5007513;28;20553;-76
2022/11/15 01:52:07;;;;;;;60.25;37.88;;;;;;;3.56;100.00;153432.81;5002092;28;20435;-74
2022/11/15 01:55:03;;;;;;;65.35;37.53;;;;;;;3.46;100.00;153407.25;4992219;28;20034;-75
2022/11/15 01:57:50;;;;;;;66.35;37.72;;;;;;;3.39;100.00;153390.69;4990601;28;20041;-77
2022/11/15 02:00:35;;;;;;;61.45;36.83;;;;;;;3.31;100.00;153370.22;4999741;28;20495;-75
2022/11/15 02:03:25;;;;;;;67.38;41.70;;;;;;;3.30;100.00;153367.72;5003354;28;20041;-75
2022/11/15 02:06:10;;;;;;;60.83;37.13;;;;;;;3.19;100.00;153340.88;5005666;28;20045;-75
2022/11/15 02:08:56;;;;;;;62.05;39.33;;;;;;;3.11;100.00;153320.47;5006864;28;20072;-75
2022/11/15 02:11:40;;;;;;;58.38;36.72;;;;;;;3.06;100.00;153307.69;4993295;28;20109;-74
2022/11/15 02:14:27;;;;;;;65.55;38.60;;;;;;;3.02;100.00;153298.75;5005971;28;20033;-74
2022/11/15 02:17:24;;;;;;;63.17;38.45;;;;;;;2.99;100.00;153291.09;5000525;28;20037;-74
2022/11/15 02:20:31;;;;;;;63.97;38.28;;;;;;;2.95;100.00;153280.88;5003879;28;20492;-75
2022/11/15 02:23:50;;;;;;;62.13;38.20;;;;;;;3.04;100.00;153303.84;5004453;28;20042;-75
2022/11/15 02:26:41;;;;;;;61.13;35.55;;;;;;;2.97;100.00;153284.72;5006920;28;20116;-74
2022/11/15 02:30:06;;;;;;;65.60;37.30;;;;;;;2.99;100.00;153291.09;5006232;28;20046;-75
2022/11/15 02:32:58;;;;;;;61.08;37.60;;;;;;;2.88;100.00;153264.31;5004868;28;20121;-75
2022/11/15 02:35:59;;;;;;;64.15;36.78;;;;;;;2.83;100.00;153251.53;4990221;28;20034;-74
2022/11/15 02:38:49;;;;;;;59.78;37.53;;;;;;;2.81;100.00;153246.44;4987638;28;20030;-75
2022/11/15 02:41:52;;;;;;;60.15;37.58;;;;;;;2.93;100.00;153277.03;5002749;28;20124;-74
2022/11/15 02:44:45;;;;;;;60.55;38.85;;;;;;;3.05;100.00;153306.44;5003848;28;20418;-75
2022/11/15 02:47:35;;;;;;;61.33;37.92;;;;;;;3.03;100.00;153301.34;5004050;28;20483;-74
2022/11/15 02:50:24;;;;;;;65.40;38.13;;;;;;;3.00;100.00;153293.66;5018470;28;20034;-75
2022/11/15 02:53:08;;;;;;;66.40;39.08;;;;;;;2.98;100.00;153287.28;5002512;28;20120;-75
2022/11/15 02:55:54;;;;;;;66.45;39.05;;;;;;;3.18;100.00;153337.03;5005196;28;20080;-74
2022/11/15 02:59:08;;;;;;;70.03;40.38;;;;;;;3.27;100.00;153360.03;5010160;28;20036;-74
2022/11/15 03:02:10;;;;;;;71.05;41.05;;;;;;;3.23;100.00;153351.09;5015451;28;20723;-75
2022/11/15 03:04:59;;;;;;;63.28;37.83;;;;;;;3.18;100.00;153337.03;4980414;28;20033;-73
2022/11/15 03:08:10;;;;;;;64.43;37.95;;;;;;;3.07;100.00;153310.22;5019460;28;20125;-74
2022/11/15 03:11:13;;;;;;;70.72;39.92;;;;;;;3.09;100.00;153315.38;5017537;28;20030;-74
2022/11/15 03:14:18;;;;;;;68.77;37.80;;;;;;;3.07;100.00;153311.53;5002902;28;20025;-74
2022/11/15 03:17:30;;;;;;;70.65;39.13;;;;;;;3.27;100.00;153361.28;5005202;28;20049;-76
2022/11/15 03:20:18;;;;;;;74.28;40.45;;;;;;;3.38;100.00;153388.13;5003540;28;20032;-76
2022/11/15 03:23:08;;;;;;;68.78;40.83;;;;;;;3.51;100.00;153420.03;4992398;28;20030;-76
2022/11/15 03:25:55;;;;;;;68.43;40.45;;;;;;;3.56;100.00;153431.50;5000764;28;20034;-74
2022/11/15 03:28:49;;;;;;;63.35;38.15;;;;;;;3.64;100.00;153451.97;5015920;28;20034;-74
2022/11/15 03:31:47;;;;;;;59.58;37.95;;;;;;;3.64;100.00;153453.25;5004988;28;20040;-75
2022/11/15 03:34:39;;;;;;;63.10;37.70;;;;;;;3.60;100.00;153443.03;5005826;28;20030;-73
2022/11/15 03:37:30;;;;;;;62.30;37.60;;;;;;;3.59;100.00;153439.19;4997273;28;20034;-75
2022/11/15 03:40:17;;;;;;;62.67;37.15;;;;;;;3.63;100.00;153450.66;4999442;28;20038;-74
2022/11/15 03:43:10;;;;;;;60.95;36.58;;;;;;;3.59;100.00;153440.47;5007784;28;20042;-74
2022/11/15 03:46:00;;;;;;;63.30;37.38;;;;;;;3.57;100.00;153434.09;5000972;28;20089;-75
2022/11/15 03:48:57;;;;;;;59.60;35.92;;;;;;;3.60;100.00;153441.72;4986355;28;20124;-74
2022/11/15 03:51:41;;;;;;;58.53;37.95;;;;;;;3.62;100.00;153448.13;5003290;28;20117;-76
2022/11/15 03:54:26;;;;;;;60.25;36.72;;;;;;;3.63;100.00;153449.41;5009174;28;20044;-76
2022/11/15 03:57:10;;;;;;;58.03;35.72;;;;;;;3.69;100.00;153464.72;4994503;28;20034;-75
2022/11/15 03:59:54;;;;;;;57.65;36.58;;;;;;;3.63;100.00;153450.66;4996069;28;20026;-75
2022/11/15 04:02:38;;;;;;;53.80;34.47;;;;;;;3.51;100.00;153420.03;4982784;28;20037;-76
2022/11/15 04:05:22;;;;;;;52.97;33.72;;;;;;;3.37;100.00;153385.59;4992518;28;20203;-76
2022/11/15 04:08:07;;;;;;;53.33;33.13;;;;;;;3.31;100.00;153371.53;5011144;28;20052;-75
2022/11/15 04:10:51;;;;;;;53.67;33.70;;;;;;;3.24;100.00;153352.34;5009290;28;20030;-75
2022/11/15 04:13:35;;;;;;;48.78;32.30;;;;;;;3.18;100.00;153338.31;5004239;28;20060;-75
2022/11/15 04:16:20;;;;;;;49.67;31.88;;;;;;;3.15;100.00;153329.41;5010626;28;20061;-75
2022/11/15 04:25:11;;;;;;;48.97;31.83;;;;;;;3.24;100.00;153352.34;5013333;28;20046;-75
2022/11/15 04:27:55;;;;;;;54.53;33.80;;;;;;;3.19;100.00;153340.88;5009768;28;20496;-75
2022/11/15 04:30:39;;;;;;;49.10;31.73;;;;;;;3.20;100.00;153342.16;5013451;28;20448;-74
2022/11/15 04:33:23;;;;;;;56.08;33.53;;;;;;;3.25;100.00;153356.19;5010114;28;20041;-75
2022/11/15 04:39:11;;;;;;;55.10;34.58;;;;;;;3.49;100.00;153414.94;5012390;28;20430;-75
2022/11/15 04:41:56;;;;;;;56.25;34.88;;;;;;;3.69;100.00;153464.72;5010064;28;20480;-74
2022/11/15 04:44:40;;;;;;;61.08;36.40;;;;;;;3.85;100.00;153505.59;5003929;28;20030;-75
2022/11/15 04:47:24;;;;;;;56.25;34.95;;;;;;;3.88;100.00;153513.28;5009762;28;20033;-75
2022/11/15 04:50:08;;;;;;;54.53;34.97;;;;;;;3.94;100.00;153526.00;5008107;28;20487;-76
2022/11/15 04:52:53;;;;;;;54.45;33.97;;;;;;;3.98;100.00;153536.25;4992208;28;20129;-75
2022/11/15 04:55:38;;;;;;;53.83;33.30;;;;;;;4.05;100.00;153555.41;4995327;28;20041;-75
2022/11/15 04:58:22;;;;;;;52.38;33.33;;;;;;;4.13;100.00;153574.56;5004990;28;20527;-75
2022/11/15 05:01:13;;;;;;;50.58;32.40;;;;;;;4.26;100.00;153606.53;5008549;28;20029;-74
2022/11/15 05:07:01;;;;;;;53.53;32.60;;;;;;;4.38;100.00;153637.16;5001956;28;20038;-75
2022/11/15 05:09:46;;;;;;;47.75;30.98;;;;;;;4.39;100.00;153638.44;5003095;28;20034;-75
2022/11/15 05:12:30;;;;;;;45.80;30.55;;;;;;;4.45;100.00;153655.06;4981127;28;20030;-75
2022/11/15 05:15:14;;;;;;;42.28;29.55;;;;;;;4.51;100.00;153669.09;5011974;28;20804;-75
2022/11/15 05:18:00;;;;;;;46.05;29.80;;;;;;;4.53;100.00;153674.22;4994054;28;20133;-77
2022/11/15 05:20:44;;;;;;;47.85;30.55;;;;;;;4.55;100.00;153678.06;5008272;28;20038;-76
2022/11/15 05:23:28;;;;;;;47.00;30.17;;;;;;;4.66;100.00;153706.16;5000061;28;20038;-75
2022/11/15 05:26:12;;;;;;;42.00;28.77;;;;;;;4.77;100.00;153733.03;5020272;28;20554;-75
2022/11/15 05:28:58;;;;;;;42.65;28.33;;;;;;;4.73;100.00;153722.75;5002210;28;20038;-74
2022/11/15 05:31:43;;;;;;;42.10;28.55;;;;;;;4.83;100.00;153749.59;5005667;28;20029;-75
2022/11/15 05:34:27;;;;;;;39.55;28.33;;;;;;;4.87;100.00;153758.56;5020925;28;20054;-74
2022/11/15 05:37:11;;;;;;;41.45;27.15;;;;;;;4.82;100.00;153747.06;5005006;28;20041;-75
2022/11/15 05:39:56;;;;;;;40.95;28.33;;;;;;;4.82;100.00;153747.06;5008536;28;20033;-76
2022/11/15 05:42:40;;;;;;;40.30;28.40;;;;;;;4.85;100.00;153754.72;5002654;28;20029;-75
2022/11/15 05:45:25;;;;;;;40.85;27.30;;;;;;;4.90;100.00;153766.25;4984797;28;20045;-75
2022/11/15 05:48:10;;;;;;;40.85;27.50;;;;;;;4.92;100.00;153771.34;5006704;28;20117;-75
2022/11/15 05:50:54;;;;;;;37.40;26.10;;;;;;;4.95;100.00;153779.00;5007381;28;20113;-75
2022/11/15 05:53:38;;;;;;;38.53;26.75;;;;;;;4.99;100.00;153789.25;5006040;28;20515;-75
2022/11/15 05:56:22;;;;;;;36.90;25.92;;;;;;;5.04;100.00;153802.00;5023489;28;20041;-76
2022/11/15 05:59:09;;;;;;;37.05;26.05;;;;;;;5.10;100.00;153816.06;4987734;28;20503;-76
2022/11/15 06:01:53;;;;;;;36.22;26.20;;;;;;;5.12;100.00;153819.91;5004938;28;20053;-76
2022/11/15 06:04:37;;;;;;;38.78;26.13;;;;;;;5.19;100.00;153839.06;5004591;28;20040;-75
2022/11/15 06:07:21;;;;;;;40.20;26.80;;;;;;;5.25;100.00;153854.44;5019479;28;20547;-77
2022/11/15 06:10:06;;;;;;;41.95;25.90;;;;;;;5.25;100.00;153854.44;5004731;28;20496;-77
2022/11/15 06:13:01;;;;;;;39.13;26.05;;;;;;;5.32;100.00;153871.06;4987095;28;20034;-80
2022/11/15 06:15:45;;;;;;;38.00;25.30;;;;;;;5.35;100.00;153877.44;5005666;28;20065;-75
2022/11/15 06:18:33;;;;;;;38.67;25.02;;;;;;;5.32;100.00;153871.06;4995262;28;20030;-77
2022/11/15 06:21:17;;;;;;;34.28;24.70;;;;;;;5.37;100.00;153883.84;5019065;28;20025;-78
2022/11/15 06:24:01;;;;;;;36.75;25.98;;;;;;;5.32;100.00;153871.06;4996314;28;20084;-76
2022/11/15 06:26:45;;;;;;;35.28;24.27;;;;;;;5.34;100.00;153876.16;5007576;28;20037;-79
2022/11/15 06:29:29;;;;;;;36.38;24.17;;;;;;;5.34;100.00;153876.16;5019908;28;20192;-78
2022/11/15 06:32:13;;;;;;;34.63;24.45;;;;;;;5.36;100.00;153881.28;5024049;28;20507;-77
2022/11/15 06:34:58;;;;;;;33.60;24.33;;;;;;;5.41;100.00;153894.06;5007708;28;20041;-78
2022/11/15 06:37:42;;;;;;;35.60;25.38;;;;;;;5.45;100.00;153903.03;5011700;28;20057;-78
2022/11/15 06:40:26;;;;;;;36.38;23.90;;;;;;;5.47;100.00;153909.41;4996232;28;20411;-79
2022/11/15 06:43:10;;;;;;;37.97;25.35;;;;;;;5.44;100.00;153901.75;4992200;28;20038;-78
2022/11/15 06:45:55;;;;;;;38.53;25.25;;;;;;;5.41;100.00;153892.78;5007967;28;20069;-78
2022/11/15 06:48:39;;;;;;;36.03;24.35;;;;;;;5.34;100.00;153876.16;5012915;28;20476;-78
2022/11/15 06:51:23;;;;;;;35.55;24.75;;;;;;;5.27;100.00;153858.25;5010454;28;20555;-77
2022/11/15 06:54:08;;;;;;;34.40;23.83;;;;;;;5.26;100.00;153856.97;4995943;28;20595;-77
2022/11/15 06:56:52;;;;;;;38.08;25.08;;;;;;;5.20;100.00;153840.41;5000686;28;20030;-76
2022/11/15 06:59:36;;;;;;;36.30;25.25;;;;;;;5.25;100.00;153853.13;5001637;28;20041;-79
2022/11/15 07:02:20;;;;;;;39.10;25.95;;;;;;;5.20;100.00;153840.41;5004542;28;20042;-76
2022/11/15 07:05:05;;;;;;;36.45;25.63;;;;;;;5.24;100.00;153850.59;5008180;28;20121;-79
2022/11/15 07:07:54;;;;;;;35.25;24.58;;;;;;;5.32;100.00;153869.78;4994571;28;20083;-77
2022/11/15 07:10:39;;;;;;;33.50;23.90;;;;;;;5.23;100.00;153849.28;4997284;28;20034;-77
2022/11/15 07:13:28;;;;;;;38.13;24.25;;;;;;;5.23;100.00;153849.28;5007752;28;20087;-77
2022/11/15 07:16:12;;;;;;;37.72;25.38;;;;;;;5.23;100.00;153848.03;5030006;28;20113;-79
2022/11/15 07:18:56;;;;;;;37.35;25.42;;;;;;;5.24;100.00;153851.88;5006586;28;20120;-76
2022/11/15 07:21:41;;;;;;;34.88;24.65;;;;;;;5.30;100.00;153864.66;5008590;28;20026;-75
2022/11/15 07:24:25;;;;;;;35.15;23.77;;;;;;;5.37;100.00;153882.53;5027973;28;20087;-76
2022/11/15 07:27:09;;;;;;;34.90;23.77;;;;;;;5.35;100.00;153877.44;5008116;28;20030;-76
2022/11/15 07:29:54;;;;;;;35.00;23.60;;;;;;;5.32;100.00;153869.78;5011460;28;20682;-77
2022/11/15 07:32:38;;;;;;;36.15;25.65;;;;;;;5.41;100.00;153892.78;5000175;28;20037;-76
2022/11/15 07:35:23;;;;;;;33.80;24.27;;;;;;;5.30;100.00;153865.94;5004886;28;20095;-79
2022/11/15 07:38:08;;;;;;;35.75;22.95;;;;;;;5.41;100.00;153894.06;5013591;28;20038;-77
2022/11/15 07:41:01;;;;;;;34.53;23.88;;;;;;;5.31;100.00;153868.47;5004081;28;20026;-76
2022/11/15 07:43:45;;;;;;;32.90;24.75;;;;;;;5.28;100.00;153859.56;5014450;28;20550;-76
2022/11/15 07:46:30;;;;;;;36.40;24.52;;;;;;;5.34;100.00;153876.16;5001184;28;20528;-75
2022/11/15 07:49:14;;;;;;;32.60;23.77;;;;;;;5.35;100.00;153878.75;4997745;28;20100;-75
2022/11/15 07:51:58;;;;;;;31.80;23.80;;;;;;;5.36;100.00;153880.00;5014655;28;20042;-77
2022/11/15 07:54:42;;;;;;;33.05;23.80;;;;;;;5.40;100.00;153890.22;4996540;28;20068;-76
2022/11/15 07:57:27;;;;;;;33.88;23.85;;;;;;;5.38;100.00;153885.09;4999564;28;20033;-75
2022/11/15 08:00:11;;;;;;;33.72;24.90;;;;;;;5.43;100.00;153899.16;5013663;28;20049;-77
2022/11/15 08:03:06;;;;;;;34.70;23.63;;;;;;;5.43;100.00;153899.16;5014545;28;20038;-78
2022/11/15 08:05:52;;;;;;;34.35;24.08;;;;;;;5.50;100.00;153914.50;4997547;28;20033;-78
2022/11/15 08:08:36;;;;;;;34.22;23.23;;;;;;;5.57;100.00;153932.41;4993680;28;20760;-79
2022/11/15 08:11:20;;;;;;;33.70;23.02;;;;;;;5.62;100.00;153946.47;5009296;28;20045;-79
2022/11/15 08:14:05;;;;;;;36.67;23.63;;;;;;;5.59;100.00;153938.78;4998447;28;20125;-76
2022/11/15 08:16:49;;;;;;;33.05;23.55;;;;;;;5.63;100.00;153947.75;5001803;28;20105;-75
2022/11/15 08:19:33;;;;;;;38.05;25.30;;;;;;;5.70;100.00;153965.66;4989128;28;20025;-76
2022/11/15 08:22:18;;;;;;;34.33;23.65;;;;;;;5.68;100.00;153960.53;4998480;28;20057;-76
2022/11/15 08:25:02;;;;;;;34.38;23.15;;;;;;;5.71;100.00;153966.91;5000265;28;20129;-79
2022/11/15 08:27:46;;;;;;;82.85;26.05;;;;;;;5.65;100.00;153954.16;4998749;28;20085;-77
2022/11/15 08:30:36;;;;;;;34.25;23.67;;;;;;;5.68;100.00;153959.28;5015808;28;20030;-76
2022/11/15 08:33:20;;;;;;;32.42;23.10;;;;;;;5.69;100.00;153961.81;5010327;28;20048;-76
2022/11/15 08:36:05;;;;;;;34.75;22.80;;;;;;;5.71;100.00;153968.25;5014136;28;20034;-78
2022/11/15 08:38:50;;;;;;;32.13;23.42;;;;;;;5.73;100.00;153972.09;5002759;28;20037;-78
2022/11/15 08:41:37;;;;;;;32.72;23.17;;;;;;;5.74;100.00;153974.63;5013725;28;20029;-77
2022/11/15 08:44:21;;;;;;;44.22;23.10;;;;;;;5.75;100.00;153977.19;5014028;28;20392;-77
2022/11/15 08:47:07;;;;;;;33.78;23.38;;;;;;;5.83;100.00;153997.63;5013581;28;20030;-79
2022/11/15 08:49:51;;;;;;;32.13;22.55;;;;;;;5.94;100.00;154024.50;4997621;28;20037;-76
2022/11/15 08:52:36;;;;;;;30.85;22.70;;;;;;;5.91;100.00;154016.81;5006282;28;20072;-76
2022/11/15 08:55:20;;;;;;;30.27;22.52;;;;;;;5.96;100.00;154030.94;4999394;28;20062;-77
2022/11/15 08:58:04;;;;;;;33.08;22.50;;;;;;;6.03;100.00;154047.59;5012562;28;20406;-77
2022/11/15 09:00:49;;;;;;;29.50;21.10;;;;;;;6.14;100.00;154074.41;5013022;28;20018;-77
2022/11/15 09:03:33;;;;;;;33.85;21.67;;;;;;;6.29;100.00;154111.50;5006458;28;20030;-77
2022/11/15 09:06:17;;;;;;;30.83;21.65;;;;;;;6.45;100.00;154152.47;4999789;28;20046;-77
2022/11/15 09:09:02;;;;;;;29.13;21.48;;;;;;;6.54;100.00;154175.50;5019619;28;20041;-80
2022/11/15 09:11:47;;;;;;;28.30;21.30;;;;;;;6.57;100.00;154181.88;4991839;28;20528;-76
2022/11/15 09:14:31;;;;;;;34.53;21.65;;;;;;;6.67;100.00;154206.19;5001465;28;20129;-77
2022/11/15 09:17:15;;;;;;;32.28;20.38;;;;;;;6.84;100.00;154249.72;5012851;28;20487;-75
2022/11/15 09:19:59;;;;;;;29.27;20.55;;;;;;;7.00;100.00;154290.66;5013408;28;20034;-76
2022/11/15 09:22:44;;;;;;;25.90;20.17;;;;;;;7.05;100.00;154302.19;5012613;28;20109;-77
2022/11/15 09:25:29;;;;;;;28.38;20.42;;;;;;;7.15;100.00;154327.78;5026571;28;20034;-76
2022/11/15 09:28:14;;;;;;;26.95;19.83;;;;;;;7.20;100.00;154339.34;5025245;28;20034;-76
2022/11/15 09:31:00;;;;;;;24.10;19.15;;;;;;;7.22;100.00;154344.44;4995505;28;20056;-75
2022/11/15 09:33:44;;;;;;;25.40;19.48;;;;;;;7.25;100.00;154350.81;4990766;28;20025;-77
2022/11/15 09:36:28;;;;;;;30.80;18.95;;;;;;;7.41;100.00;154393.06;4991966;28;20121;-77
2022/11/15 09:39:13;;;;;;;25.67;18.58;;;;;;;7.47;100.00;154405.88;5018999;28;20048;-76
2022/11/15 09:41:57;;;;;;;21.95;17.38;;;;;;;7.61;100.00;154441.75;5013840;28;20105;-76
2022/11/15 09:45:20;;;;;;;30.27;18.58;;;;;;;7.64;100.00;154448.16;5008002;28;20045;-74
2022/11/15 09:48:04;;;;;;;26.40;18.23;;;;;;;7.78;100.00;154485.28;4980478;28;20453;-78
2022/11/15 09:51:01;;;;;;;24.05;17.80;;;;;;;7.70;100.00;154463.50;5001939;28;20091;-76
2022/11/15 09:53:42;;;;;;;25.15;17.58;;;;;;;7.72;100.00;154468.63;5031666;28;20053;-76
2022/11/15 09:56:19;;;;;;;24.45;17.83;;;;;;;7.70;100.00;154463.50;5016723;28;20129;-75
2022/11/15 09:59:22;;;;;;;26.40;17.75;;;;;;;7.65;100.00;154450.69;4978846;28;20037;-77
2022/11/15 10:01:54;;;;;;;;;;;;;;;7.51;100.00;154417.41;5007218;28;20046;-75
2022/11/15 10:04:22;;;;;;;24.97;18.33;;;;;;;7.52;100.00;154419.97;5011462;28;19913;-77
2022/11/15 10:07:01;;;;;;;25.38;18.67;;;;;;;7.53;100.00;154421.25;4997203;28;20045;-78
2022/11/15 10:09:44;;;;;;;28.23;17.80;;;;;;;7.58;100.00;154435.31;4978305;28;20045;-76
2022/11/15 10:12:13;;;;;;;22.02;17.73;;;;;;;7.62;100.00;154443.03;4973154;28;20054;-76
2022/11/15 10:14:39;;;;;;;26.20;17.92;;;;;;;7.64;100.00;154448.16;4993370;28;20038;-76
2022/11/15 10:17:17;;;;;;;25.40;17.75;;;;;;;7.75;100.00;154477.59;4995355;28;20034;-76
2022/11/15 10:20:01;;;;;;;27.92;18.70;;;;;;;7.77;100.00;154482.69;5009822;28;20045;-78
2022/11/15 10:22:47;;;;;;;27.33;18.50;;;;;;;7.88;100.00;154509.63;4964242;28;20030;-78
2022/11/15 10:25:26;;;;;;;29.35;18.55;;;;;;;7.91;100.00;154516.00;4994262;28;20045;-77
2022/11/15 10:27:56;;;;;;;24.27;17.33;;;;;;;7.92;100.00;154518.56;4993206;28;20515;-78
2022/11/15 10:30:28;;;;;;;24.77;17.02;;;;;;;7.99;100.00;154536.53;4994875;28;20896;-74
2022/11/15 10:32:54;;;;;;;23.88;17.13;;;;;;;8.07;100.00;154555.72;4991756;28;20041;-77
2022/11/15 10:35:29;;;;;;;25.30;17.80;;;;;;;8.15;100.00;154576.22;4990317;28;20034;-77
2022/11/15 10:38:06;;;;;;;21.52;15.90;;;;;;;8.32;100.00;154618.47;4994108;28;20096;-79
2022/11/15 10:40:32;;;;;;;21.65;16.17;;;;;;;8.29;100.00;154612.09;5029953;28;20045;-76
2022/11/15 10:43:26;;;;;;;20.75;15.85;;;;;;;8.28;100.00;154609.50;4976988;28;20034;-77
2022/11/15 10:45:52;;;;;;;23.30;16.38;;;;;;;8.35;100.00;154626.19;4975421;28;20046;-77
2022/11/15 10:48:22;;;;;;;22.83;15.75;;;;;;;8.37;100.00;154632.56;4996003;28;20030;-77
2022/11/15 10:50:50;;;;;;;25.33;16.55;;;;;;;8.39;100.00;154637.69;4995956;28;20034;-78
2022/11/15 10:53:30;;;;;;;24.23;16.38;;;;;;;8.30;100.00;154614.63;5012859;28;20076;-76
2022/11/15 10:55:59;;;;;;;23.45;15.40;;;;;;;8.30;100.00;154614.63;4997110;28;20558;-76
2022/11/15 10:58:47;;;;;;;86.35;19.15;;;;;;;8.34;100.00;154624.91;4996186;28;20037;-78
2022/11/15 11:01:22;;;;;;;203.73;24.75;;;;;;;8.33;100.00;154621.06;5000411;28;20046;-75
2022/11/15 11:04:08;;;;;;;20.88;16.48;;;;;;;8.39;100.00;154637.69;4982309;28;20038;-76
2022/11/15 11:06:59;;;;;;;24.42;17.27;;;;;;;8.45;100.00;154650.56;4969543;28;20040;-78
2022/11/15 11:09:36;;;;;;;25.65;16.35;;;;;;;8.49;100.00;154660.81;4988677;28;20537;-77
2022/11/15 11:12:10;;;;;;;21.80;16.98;;;;;;;8.50;100.00;154663.38;4995953;28;20054;-78
2022/11/15 11:14:38;;;;;;;25.23;17.38;;;;;;;8.50;100.00;154664.66;4986223;28;20038;-80
2022/11/15 11:17:15;;;;;;;21.05;15.88;;;;;;;8.62;100.00;154692.84;4996642;28;20030;-78
2022/11/15 11:19:47;;;;;;;25.05;15.95;;;;;;;8.58;100.00;154685.13;5015705;28;20038;-77
2022/11/15 11:22:25;;;;;;;22.57;16.33;;;;;;;8.56;100.00;154680.03;5013110;28;20057;-76
2022/11/15 11:25:20;;;;;;;23.60;16.20;;;;;;;8.61;100.00;154691.56;4996847;28;20283;-77
2022/11/15 11:28:19;;;;;;;21.90;15.88;;;;;;;8.65;100.00;154700.56;4995380;28;20141;-77
2022/11/15 11:31:23;;;;;;;17.63;14.45;;;;;;;8.70;100.00;154713.31;4976749;28;20030;-78
2022/11/15 11:34:14;;;;;;;21.33;15.10;;;;;;;8.75;100.00;154726.16;4997257;28;20044;-76
2022/11/15 11:36:52;;;;;;;20.67;14.27;;;;;;;8.81;100.00;154740.25;5006550;28;20037;-79
2022/11/15 11:39:44;;;;;;;19.05;13.82;;;;;;;8.85;100.00;154751.75;5014188;28;20045;-78
2022/11/15 11:42:33;;;;;;;20.42;14.55;;;;;;;8.84;100.00;154747.97;4997985;28;20037;-76
2022/11/15 11:45:49;;;;;;;22.17;14.45;;;;;;;8.90;100.00;154763.31;4994886;28;20170;-78
2022/11/15 11:48:34;;;;;;;20.10;13.55;;;;;;;8.91;100.00;154765.88;4980725;28;20132;-78
2022/11/15 11:51:12;;;;;;;20.05;13.07;;;;;;;8.93;100.00;154772.28;5016441;28;20034;-77
2022/11/15 11:53:45;;;;;;;18.15;12.88;;;;;;;8.98;100.00;154782.53;4996201;28;20032;-78
2022/11/15 11:56:44;;;;;;;20.60;13.02;;;;;;;9.04;100.00;154797.91;5012843;28;20048;-77
2022/11/15 11:59:22;;;;;;;19.02;13.35;;;;;;;9.02;100.00;154794.06;4949127;28;20041;-77
2022/11/15 12:01:48;;;;;;;16.77;13.20;;;;;;;9.09;100.00;154812.00;4997704;28;20037;-77
2022/11/15 12:04:24;;;;;;;16.52;12.32;;;;;;;9.15;100.00;154827.44;5015970;28;20038;-77
2022/11/15 12:07:03;;;;;;;19.15;12.70;;;;;;;9.23;100.00;154846.66;5014771;28;20072;-78
2022/11/15 12:09:44;;;;;;;21.58;13.07;;;;;;;9.26;100.00;154854.31;4985830;28;20171;-77
2022/11/15 12:12:22;;;;;;;20.08;11.77;;;;;;;9.37;100.00;154879.97;4998769;28;20026;-77
2022/11/15 12:14:52;;;;;;;16.02;12.25;;;;;;;9.40;100.00;154887.63;5003481;28;20069;-77
2022/11/15 12:17:26;;;;;;;15.25;12.45;;;;;;;9.48;100.00;154909.44;5000170;28;20037;-77
2022/11/15 12:20:01;;;;;;;25.35;12.35;;;;;;;9.57;100.00;154931.25;5016274;28;20037;-78
2022/11/15 12:22:39;;;;;;;16.75;11.50;;;;;;;9.79;100.00;154985.09;4992100;28;20084;-77
2022/11/15 12:25:18;;;;;;;17.42;11.98;;;;;;;9.98;100.00;155033.81;5005539;28;20045;-77
2022/11/15 12:28:14;;;;;;;16.27;11.80;;;;;;;10.20;100.00;155087.69;4982148;28;20037;-76
2022/11/15 12:31:04;;;;;;;19.73;11.88;;;;;;;10.34;100.00;155123.69;4990914;28;20498;-77
2022/11/15 12:33:41;;;;;;;17.08;11.32;;;;;;;10.44;100.00;155148.03;4970494;28;20046;-79
2022/11/15 12:36:22;;;;;;;17.35;10.55;;;;;;;10.58;100.00;155183.94;5013261;28;20614;-77
2022/11/15 12:39:00;;;;;;;15.60;11.10;;;;;;;10.87;100.00;155255.81;4997225;28;20076;-76
2022/11/15 12:41:34;;;;;;;17.45;11.07;;;;;;;11.05;100.00;155301.97;4982223;28;20022;-76
2022/11/15 12:44:01;;;;;;;14.77;11.07;;;;;;;11.05;100.00;155300.72;4965429;28;20278;-77